Time,TemperatureF,DewpointF,PressureIn,WindDirection,WindDirectionDegrees,WindSpeedMPH,WindSpeedGustMPH,Humidity,HourlyPrecipIn,Conditions,Clouds,dailyrainin,SolarRadiationWatts/m^2,SoftwareType,DateUTC
2013-08-06 00:01:00,71.0,67.0,29.98,WNW,283,0.0,-999.0,87,-99.99,,,-99.99,0.000000,,2013-08-06 04:01:00,
2013-08-06 00:33:00,71.0,67.0,29.98,WNW,283,0.0,-999.0,88,-99.99,,,-99.99,0.000000,,2013-08-06 04:33:00,
2013-08-06 00:44:00,71.0,67.0,29.98,WNW,283,0.0,-999.0,88,-99.99,,,-99.99,0.000000,,2013-08-06 04:44:00,
2013-08-06 00:53:00,71.0,68.0,29.98,WNW,283,0.0,-999.0,89,-99.99,,,-99.99,0.000000,,2013-08-06 04:53:00,
2013-08-06 01:02:00,71.0,68.0,29.98,WNW,283,0.0,-999.0,89,-99.99,,,-99.99,0.000000,,2013-08-06 05:02:00,
2013-08-06 01:11:00,71.0,68.0,29.98,WNW,283,0.0,-999.0,89,-99.99,,,-99.99,0.000000,,2013-08-06 05:11:00,
2013-08-06 01:53:00,71.0,68.0,29.98,WNW,283,0.0,-999.0,90,-99.99,,,-99.99,0.000000,,2013-08-06 05:53:00,
2013-08-06 02:11:00,71.0,68.0,29.98,WNW,283,0.0,-999.0,91,-99.99,,,-99.99,0.000000,,2013-08-06 06:11:00,
2013-08-06 02:22:00,70.0,67.0,29.97,WNW,283,0.0,-999.0,91,-99.99,,,-99.99,0.000000,,2013-08-06 06:22:00,
2013-08-06 02:32:00,70.0,67.0,29.97,WNW,283,0.0,-999.0,91,-99.99,,,-99.99,0.000000,,2013-08-06 06:32:00,
2013-08-06 02:43:00,70.0,67.0,29.97,WNW,283,0.0,-999.0,91,-99.99,,,-99.99,0.000000,,2013-08-06 06:43:00,
2013-08-06 02:52:00,70.0,67.0,29.96,WNW,283,0.0,-999.0,91,-99.99,,,-99.99,0.000000,,2013-08-06 06:52:00,
2013-08-06 03:01:00,70.0,67.0,29.96,WNW,283,0.0,-999.0,91,-99.99,,,-99.99,0.000000,,2013-08-06 07:01:00,
2013-08-06 03:12:00,70.0,67.0,29.96,WNW,283,0.0,-999.0,91,-99.99,,,-99.99,0.000000,,2013-08-06 07:12:00,
2013-08-06 03:22:00,70.0,68.0,29.96,WNW,283,0.0,-999.0,92,-99.99,,,-99.99,0.000000,,2013-08-06 07:22:00,
2013-08-06 03:32:00,70.0,68.0,29.96,WNW,283,0.0,-999.0,92,-99.99,,,-99.99,0.000000,,2013-08-06 07:32:00,
2013-08-06 03:43:00,70.0,68.0,29.96,WNW,283,0.0,-999.0,92,-99.99,,,-99.99,0.000000,,2013-08-06 07:43:00,
2013-08-06 03:53:00,70.0,68.0,29.96,WNW,283,0.0,-999.0,92,-99.99,,,-99.99,0.000000,,2013-08-06 07:53:00,
2013-08-06 04:02:00,70.0,68.0,29.96,WNW,283,0.0,-999.0,92,-99.99,,,-99.99,0.000000,,2013-08-06 08:02:00,
2013-08-06 04:22:00,70.0,68.0,29.96,WNW,283,0.0,-999.0,92,-99.99,,,-99.99,0.000000,,2013-08-06 08:22:00,
2013-08-06 04:33:00,70.0,68.0,29.96,WNW,283,0.0,-999.0,92,-99.99,,,-99.99,0.000000,,2013-08-06 08:33:00,
2013-08-06 04:43:00,70.0,68.0,29.96,WNW,283,0.0,-999.0,92,-99.99,,,-99.99,0.000000,,2013-08-06 08:43:00,
2013-08-06 04:52:00,70.0,68.0,29.96,WNW,283,0.0,-999.0,92,-99.99,,,-99.99,0.000000,,2013-08-06 08:52:00,
2013-08-06 05:01:00,69.0,67.0,29.96,WNW,283,0.0,-999.0,93,-99.99,,,-99.99,0.000000,,2013-08-06 09:01:00,
2013-08-06 05:11:00,69.0,67.0,29.96,WNW,283,0.0,-999.0,93,-99.99,,,-99.99,0.000000,,2013-08-06 09:11:00,
2013-08-06 05:32:00,69.0,67.0,29.95,WNW,283,0.0,-999.0,92,-99.99,,,-99.99,0.000000,,2013-08-06 09:32:00,
2013-08-06 05:43:00,69.0,67.0,29.95,WNW,283,0.0,-999.0,92,-99.99,,,-99.99,0.000000,,2013-08-06 09:43:00,
2013-08-06 05:52:00,69.0,67.0,29.95,WNW,283,0.0,-999.0,92,-99.99,,,-99.99,0.000000,,2013-08-06 09:52:00,
2013-08-06 06:32:00,69.0,67.0,29.97,WNW,283,0.0,-999.0,92,-99.99,,,-99.99,0.000000,,2013-08-06 10:32:00,
2013-08-06 06:43:00,69.0,67.0,29.97,WNW,283,0.0,-999.0,93,-99.99,,,-99.99,0.000000,,2013-08-06 10:43:00,
2013-08-06 06:52:00,69.0,67.0,29.97,WNW,283,0.0,-999.0,93,-99.99,,,-99.99,0.000000,,2013-08-06 10:52:00,
2013-08-06 07:32:00,68.0,66.0,29.98,WNW,283,0.0,-999.0,93,-99.99,,,-99.99,7.000000,,2013-08-06 11:32:00,
2013-08-06 07:43:00,68.0,66.0,29.98,WNW,283,0.0,-999.0,93,-99.99,,,-99.99,9.000000,,2013-08-06 11:43:00,
2013-08-06 07:53:00,68.0,66.0,29.98,WNW,283,0.0,-999.0,93,-99.99,,,-99.99,14.000000,,2013-08-06 11:53:00,
2013-08-06 08:02:00,69.0,67.0,29.98,WNW,283,0.0,-999.0,93,-99.99,,,-99.99,44.000000,,2013-08-06 12:02:00,
2013-08-06 08:11:00,69.0,67.0,29.98,WNW,283,0.0,-999.0,93,-99.99,,,-99.99,35.000000,,2013-08-06 12:11:00,
2013-08-06 08:43:00,70.0,68.0,29.98,WNW,283,0.0,-999.0,94,-99.99,,,-99.99,130.000000,,2013-08-06 12:43:00,
2013-08-06 08:52:00,70.0,68.0,29.99,WNW,283,0.0,-999.0,93,-99.99,,,-99.99,109.000000,,2013-08-06 12:52:00,
2013-08-06 09:02:00,71.0,69.0,29.99,WNW,283,0.0,-999.0,93,-99.99,,,-99.99,93.000000,,2013-08-06 13:02:00,
2013-08-06 09:11:00,71.0,69.0,29.99,WNW,283,0.0,-999.0,93,-99.99,,,-99.99,83.000000,,2013-08-06 13:11:00,
2013-08-06 10:01:00,75.0,70.0,29.99,West,267,2.0,-999.0,84,-99.99,,,-99.99,355.000000,,2013-08-06 14:01:00,
2013-08-06 10:11:00,75.0,69.0,29.99,West,262,1.0,-999.0,82,-99.99,,,-99.99,325.000000,,2013-08-06 14:11:00,
2013-08-06 10:22:00,76.0,70.0,30.00,West,262,0.0,-999.0,83,-99.99,,,-99.99,185.000000,,2013-08-06 14:22:00,
2013-08-06 11:02:00,79.0,69.0,30.00,WSW,257,1.0,-999.0,72,-99.99,,,-99.99,522.000000,,2013-08-06 15:02:00,
2013-08-06 11:33:00,81.0,69.0,30.00,WSW,244,1.0,-999.0,68,-99.99,,,-99.99,221.000000,,2013-08-06 15:33:00,
2013-08-06 11:44:00,81.0,69.0,29.99,WSW,241,0.0,-999.0,68,-99.99,,,-99.99,223.000000,,2013-08-06 15:44:00,
2013-08-06 11:52:00,81.0,70.0,30.00,WSW,241,0.0,-999.0,69,-99.99,,,-99.99,279.000000,,2013-08-06 15:52:00,
2013-08-06 12:02:00,81.0,70.0,30.00,WSW,241,0.0,-999.0,70,-99.99,,,-99.99,169.000000,,2013-08-06 16:02:00,
2013-08-06 12:11:00,81.0,70.0,29.99,WSW,241,0.0,-999.0,69,-99.99,,,-99.99,167.000000,,2013-08-06 16:11:00,
2013-08-06 12:43:00,82.0,71.0,30.00,SW,217,1.0,-999.0,69,-99.99,,,-99.99,227.000000,,2013-08-06 16:43:00,
2013-08-06 12:52:00,82.0,71.0,30.00,SW,217,1.0,-999.0,70,-99.99,,,-99.99,234.000000,,2013-08-06 16:52:00,
2013-08-06 13:02:00,82.0,72.0,30.00,SW,217,0.0,-999.0,72,-99.99,,,-99.99,197.000000,,2013-08-06 17:02:00,
2013-08-06 13:44:00,81.0,71.0,30.00,SW,232,1.0,-999.0,71,-99.99,,,-99.99,413.000000,,2013-08-06 17:44:00,
2013-08-06 13:52:00,81.0,71.0,29.99,SW,228,2.0,-999.0,72,-99.99,,,-99.99,619.000000,,2013-08-06 17:52:00,
2013-08-06 14:32:00,84.0,73.0,29.98,South,179,1.0,-999.0,70,-99.99,,,-99.99,788.000000,,2013-08-06 18:32:00,
2013-08-06 14:52:00,85.0,72.0,29.98,SSE,168,4.0,-999.0,65,-99.99,,,-99.99,499.000000,,2013-08-06 18:52:00,
2013-08-06 15:01:00,85.0,73.0,29.98,SSE,165,1.0,-999.0,68,-99.99,,,-99.99,805.000000,,2013-08-06 19:01:00,
2013-08-06 15:32:00,85.0,74.0,29.97,SSW,196,1.0,-999.0,69,-99.99,,,-99.99,415.000000,,2013-08-06 19:32:00,
2013-08-06 15:42:00,85.0,73.0,29.96,SSW,203,2.0,-999.0,68,-99.99,,,-99.99,585.000000,,2013-08-06 19:42:00,
2013-08-06 15:52:00,85.0,73.0,29.97,SW,215,1.0,-999.0,67,-99.99,,,-99.99,316.000000,,2013-08-06 19:52:00,
2013-08-06 16:01:00,85.0,74.0,29.96,WSW,244,1.0,-999.0,69,-99.99,,,-99.99,237.000000,,2013-08-06 20:01:00,
2013-08-06 16:32:00,85.0,74.0,29.96,SW,217,3.0,-999.0,69,-99.99,,,-99.99,169.000000,,2013-08-06 20:32:00,
2013-08-06 16:44:00,85.0,74.0,29.96,SW,230,0.0,-999.0,70,-99.99,,,-99.99,169.000000,,2013-08-06 20:44:00,
2013-08-06 17:43:00,83.0,74.0,29.97,WSW,242,1.0,-999.0,75,-99.99,,,-99.99,84.000000,,2013-08-06 21:43:00,
2013-08-06 17:52:00,83.0,74.0,29.97,WSW,244,1.0,-999.0,75,-99.99,,,-99.99,63.000000,,2013-08-06 21:52:00,
2013-08-06 18:01:00,83.0,75.0,29.97,WSW,244,0.0,-999.0,76,-99.99,,,-99.99,53.000000,,2013-08-06 22:01:00,
2013-08-06 18:11:00,82.0,74.0,29.97,WSW,250,0.0,-999.0,76,-99.99,,,-99.99,53.000000,,2013-08-06 22:11:00,
2013-08-06 18:32:00,81.0,73.0,29.96,WSW,248,0.0,-999.0,77,-99.99,,,-99.99,51.000000,,2013-08-06 22:32:00,
2013-08-06 18:43:00,81.0,73.0,29.96,WSW,245,1.0,-999.0,78,-99.99,,,-99.99,54.000000,,2013-08-06 22:43:00,
2013-08-06 19:01:00,80.0,73.0,29.96,WSW,238,0.0,-999.0,80,-99.99,,,-99.99,62.000000,,2013-08-06 23:01:00,
2013-08-06 19:11:00,80.0,74.0,29.94,SW,222,1.0,-999.0,81,-99.99,,,-99.99,62.000000,,2013-08-06 23:11:00,
2013-08-06 19:52:00,80.0,74.0,29.96,SW,221,0.0,-999.0,81,-99.99,,,-99.99,26.000000,,2013-08-06 23:52:00,
2013-08-06 20:01:00,80.0,74.0,29.96,SW,221,0.0,-999.0,82,-99.99,,,-99.99,21.000000,,2013-08-07 00:01:00,
2013-08-06 20:11:00,79.0,73.0,29.96,SW,221,0.0,-999.0,82,-99.99,,,-99.99,14.000000,,2013-08-07 00:11:00,
2013-08-06 20:21:00,79.0,74.0,29.96,SW,221,0.0,-999.0,84,-99.99,,,-99.99,12.000000,,2013-08-07 00:21:00,
2013-08-06 20:32:00,79.0,74.0,29.96,SW,221,0.0,-999.0,84,-99.99,,,-99.99,12.000000,,2013-08-07 00:32:00,
2013-08-06 20:43:00,79.0,74.0,29.96,SW,221,0.0,-999.0,84,-99.99,,,-99.99,0.000000,,2013-08-07 00:43:00,
2013-08-06 21:01:00,78.0,73.0,29.95,SW,221,0.0,-999.0,85,-99.99,,,-99.99,0.000000,,2013-08-07 01:01:00,
2013-08-06 21:11:00,78.0,73.0,29.95,SW,221,0.0,-999.0,86,-99.99,,,-99.99,0.000000,,2013-08-07 01:11:00,
2013-08-06 21:43:00,76.0,72.0,29.96,SW,221,0.0,-999.0,87,-99.99,,,-99.99,0.000000,,2013-08-07 01:43:00,
2013-08-06 21:52:00,76.0,72.0,29.96,SW,221,0.0,-999.0,87,-99.99,,,-99.99,0.000000,,2013-08-07 01:52:00,
2013-08-06 22:02:00,76.0,72.0,29.96,SW,221,0.0,-999.0,88,-99.99,,,-99.99,0.000000,,2013-08-07 02:02:00,
2013-08-06 22:11:00,76.0,72.0,29.97,SW,221,0.0,-999.0,88,-99.99,,,-99.99,0.000000,,2013-08-07 02:11:00,
2013-08-06 22:53:00,75.0,72.0,29.98,SW,221,0.0,-999.0,89,-99.99,,,-99.99,0.000000,,2013-08-07 02:53:00,
2013-08-06 23:43:00,74.0,72.0,29.98,SW,221,0.0,-999.0,92,-99.99,,,-99.99,0.000000,,2013-08-07 03:43:00,
2013-08-06 23:52:00,74.0,72.0,29.98,SW,221,0.0,-999.0,92,-99.99,,,-99.99,0.000000,,2013-08-07 03:52:00,